createdAt,value
2023-03-28T00:02:13.661Z,0.35
2023-03-28T00:04:42.360Z,1.00
2023-03-28T00:07:10.472Z,0.60
2023-03-28T00:09:38.708Z,0.73
2023-03-28T00:12:07.355Z,1.12
2023-03-28T00:14:38.005Z,0.93
2023-03-28T00:17:07.710Z,0.80
2023-03-28T00:19:40.597Z,0.32
2023-03-28T00:22:09.299Z,0.90
2023-03-28T00:24:40.848Z,0.93
2023-03-28T00:27:09.355Z,0.60
2023-03-28T00:29:38.847Z,1.00
2023-03-28T00:32:07.020Z,0.75
2023-03-28T00:34:35.624Z,0.98
2023-03-28T00:37:04.720Z,0.90
2023-03-28T00:39:32.819Z,0.60
2023-03-28T00:42:03.462Z,1.00
2023-03-28T00:44:46.982Z,1.37
2023-03-28T00:47:37.492Z,0.95
2023-03-28T00:50:10.898Z,0.65
2023-03-28T00:52:42.794Z,0.60
2023-03-28T00:55:15.266Z,0.90
2023-03-28T00:57:45.494Z,0.50
2023-03-28T01:00:19.006Z,1.02
2023-03-28T01:02:52.513Z,0.50
2023-03-28T01:05:27.390Z,1.10
2023-03-28T01:08:02.923Z,0.40
2023-03-28T01:10:33.470Z,0.50
2023-03-28T01:13:04.071Z,0.75
2023-03-28T01:15:33.937Z,0.60
2023-03-28T01:18:04.002Z,0.65
2023-03-28T01:21:14.329Z,0.80
2023-03-28T01:24:11.923Z,1.48
2023-03-28T01:26:53.769Z,0.57
2023-03-28T01:29:49.706Z,1.10
2023-03-28T01:32:53.825Z,0.82
2023-03-28T01:35:47.688Z,0.73
2023-03-28T01:38:22.162Z,1.05
2023-03-28T01:40:58.288Z,0.62
2023-03-28T01:43:33.654Z,0.95
2023-03-28T01:46:09.115Z,1.17
2023-03-28T01:48:44.767Z,0.88
2023-03-28T01:51:27.480Z,1.00
2023-03-28T01:54:05.879Z,0.95
2023-03-28T01:56:41.064Z,0.80
2023-03-28T01:59:18.516Z,0.90
2023-03-28T02:01:59.450Z,0.65
2023-03-28T02:04:30.309Z,1.27
2023-03-28T02:06:59.537Z,0.90
2023-03-28T02:09:31.601Z,1.35
2023-03-28T02:12:04.903Z,0.77
2023-03-28T02:14:38.402Z,1.83
2023-03-28T02:17:16.017Z,0.65
2023-03-28T02:19:50.246Z,0.80
2023-03-28T02:22:25.654Z,0.60
2023-03-28T02:24:56.405Z,1.00
2023-03-28T02:27:25.913Z,0.77
2023-03-28T02:29:55.558Z,0.55
2023-03-28T02:32:26.284Z,1.00
2023-03-28T02:34:55.923Z,1.20
2023-03-28T02:37:38.171Z,1.35
2023-03-28T02:40:19.530Z,0.70
2023-03-28T02:43:04.920Z,1.55
2023-03-28T02:45:51.948Z,1.23
2023-03-28T02:48:30.958Z,1.42
2023-03-28T02:51:13.362Z,0.70
2023-03-28T02:53:51.992Z,1.37
2023-03-28T02:56:31.886Z,1.05
2023-03-28T02:59:07.587Z,0.90
2023-03-28T03:01:40.949Z,1.45
2023-03-28T03:04:09.231Z,1.12
2023-03-28T03:06:37.686Z,1.98
2023-03-28T03:09:05.834Z,1.05
2023-03-28T03:11:35.328Z,1.40
2023-03-28T03:14:03.723Z,0.80
2023-03-28T03:16:32.012Z,1.15
2023-03-28T03:19:00.059Z,0.90
2023-03-28T03:21:28.655Z,1.08
2023-03-28T03:23:57.405Z,1.27
2023-03-28T03:26:25.755Z,0.75
2023-03-28T03:28:57.321Z,1.30
2023-03-28T03:31:26.652Z,1.00
2023-03-28T03:33:56.342Z,1.10
2023-03-28T03:36:27.242Z,2.20
2023-03-28T03:38:55.784Z,0.77
2023-03-28T03:41:24.021Z,0.80
2023-03-28T03:43:52.263Z,1.05
2023-03-28T03:46:22.108Z,0.88
2023-03-28T03:48:50.690Z,1.33
2023-03-28T03:51:19.117Z,1.52
2023-03-28T03:53:50.658Z,0.98
2023-03-28T03:56:19.145Z,1.00
2023-03-28T03:58:49.685Z,0.73
2023-03-28T04:01:17.984Z,0.90
2023-03-28T04:03:49.150Z,1.12
2023-03-28T04:06:17.818Z,0.95
2023-03-28T04:08:46.602Z,1.12
2023-03-28T04:11:20.873Z,0.98
2023-03-28T04:13:49.114Z,1.12
2023-03-28T04:16:17.344Z,1.12
2023-03-28T04:18:50.570Z,1.30
2023-03-28T04:21:25.814Z,0.75
2023-03-28T04:23:55.094Z,1.10
2023-03-28T04:26:26.969Z,1.23
2023-03-28T04:28:56.369Z,1.65
2023-03-28T04:31:29.701Z,1.00
2023-03-28T04:34:00.967Z,1.45
2023-03-28T04:36:31.484Z,1.02
2023-03-28T04:39:02.320Z,1.15
2023-03-28T04:41:33.307Z,1.17
2023-03-28T04:44:06.074Z,1.75
2023-03-28T04:46:34.582Z,1.23
2023-03-28T04:49:04.033Z,1.65
2023-03-28T04:51:33.520Z,1.70
2023-03-28T04:54:01.888Z,1.48
2023-03-28T04:56:33.134Z,2.42
2023-03-28T04:59:01.423Z,1.23
2023-03-28T05:01:30.986Z,1.55
2023-03-28T05:04:00.355Z,1.65
2023-03-28T05:06:28.670Z,1.83
2023-03-28T05:08:58.137Z,1.92
2023-03-28T05:11:27.045Z,0.88
2023-03-28T05:13:55.628Z,2.17
2023-03-28T05:16:24.063Z,1.70
2023-03-28T05:18:53.296Z,1.25
2023-03-28T05:21:22.596Z,2.10
2023-03-28T05:23:53.406Z,1.30
2023-03-28T05:26:23.386Z,1.48
2023-03-28T05:28:51.742Z,1.42
2023-03-28T05:31:19.863Z,1.48
2023-03-28T05:33:50.986Z,1.58
2023-03-28T05:36:22.215Z,2.15
2023-03-28T05:38:50.859Z,1.70
2023-03-28T05:41:19.097Z,1.77
2023-03-28T05:43:48.528Z,1.12
2023-03-28T05:46:21.329Z,1.50
2023-03-28T05:48:49.917Z,1.75
2023-03-28T05:51:18.829Z,1.98
2023-03-28T05:53:46.973Z,2.30
2023-03-28T05:56:15.799Z,1.90
2023-03-28T05:58:44.227Z,1.70
2023-03-28T06:01:18.000Z,1.30
2023-03-28T06:03:51.468Z,1.10
2023-03-28T06:06:20.437Z,1.60
2023-03-28T06:08:48.808Z,1.35
2023-03-28T06:11:17.304Z,2.00
2023-03-28T06:13:45.906Z,1.25
2023-03-28T06:16:15.836Z,1.62
2023-03-28T06:18:43.913Z,1.23
2023-03-28T06:21:11.967Z,1.62
2023-03-28T06:23:40.683Z,1.42
2023-03-28T06:26:10.562Z,1.73
2023-03-28T06:28:39.307Z,1.62
2023-03-28T06:31:11.637Z,1.40
2023-03-28T06:33:41.590Z,1.92
2023-03-28T06:36:12.038Z,1.45
2023-03-28T06:38:40.168Z,2.12
2023-03-28T06:41:08.864Z,1.58
2023-03-28T06:43:37.336Z,1.37
2023-03-28T06:46:06.385Z,1.45
2023-03-28T06:48:36.252Z,1.70
2023-03-28T06:51:07.742Z,1.62
2023-03-28T06:53:36.627Z,1.52
2023-03-28T06:56:06.881Z,1.20
2023-03-28T06:58:35.246Z,2.05
2023-03-28T07:01:04.979Z,1.50
2023-03-28T07:03:33.741Z,1.85
2023-03-28T07:06:05.689Z,1.55
2023-03-28T07:08:35.615Z,1.33
2023-03-28T07:11:04.672Z,1.40
2023-03-28T07:13:33.640Z,1.48
2023-03-28T07:16:04.142Z,2.17
2023-03-28T07:18:33.239Z,1.60
2023-03-28T07:21:07.654Z,1.42
2023-03-28T07:23:39.371Z,1.87
2023-03-28T07:26:09.995Z,1.95
2023-03-28T07:28:38.779Z,1.73
2023-03-28T07:31:07.556Z,1.62
2023-03-28T07:33:38.197Z,1.67
2023-03-28T07:36:10.685Z,1.10
2023-03-28T07:38:40.303Z,1.25
2023-03-28T07:41:09.433Z,1.23
2023-03-28T07:43:38.834Z,1.27
2023-03-28T07:46:08.692Z,1.20
2023-03-28T07:48:40.747Z,1.10
2023-03-28T07:51:10.111Z,1.20
2023-03-28T07:53:40.094Z,1.40
2023-03-28T07:56:12.050Z,0.88
2023-03-28T07:58:45.044Z,1.02
2023-03-28T08:01:14.172Z,1.27
2023-03-28T08:03:42.917Z,1.40
2023-03-28T08:06:28.529Z,1.48
2023-03-28T08:09:01.104Z,0.85
2023-03-28T08:11:29.708Z,1.25
2023-03-28T08:13:57.792Z,1.08
2023-03-28T08:16:26.186Z,1.45
2023-03-28T08:19:09.281Z,1.05
2023-03-28T08:21:40.279Z,1.60
2023-03-28T08:24:14.086Z,1.42
2023-03-28T08:26:48.662Z,1.33
2023-03-28T08:29:17.385Z,1.20
2023-03-28T08:31:45.959Z,1.00
2023-03-28T08:34:14.560Z,1.55
2023-03-28T08:36:43.309Z,1.08
2023-03-28T08:39:16.022Z,0.85
2023-03-28T08:42:22.560Z,0.77
2023-03-28T08:45:24.017Z,1.00
2023-03-28T08:48:06.218Z,0.90
2023-03-28T08:50:36.315Z,0.80
2023-03-28T08:53:06.028Z,1.10
2023-03-28T08:55:38.595Z,1.20
2023-03-28T08:58:10.223Z,0.70
2023-03-28T09:00:40.373Z,1.05
2023-03-28T09:03:13.680Z,0.62
2023-03-28T09:05:48.107Z,0.98
2023-03-28T09:08:42.782Z,1.67
2023-03-28T09:11:27.672Z,1.00
2023-03-28T09:14:09.573Z,0.98
2023-03-28T09:16:54.482Z,0.90
2023-03-28T09:19:44.891Z,1.20
2023-03-28T09:22:28.435Z,1.08
2023-03-28T09:25:15.410Z,0.90
2023-03-28T09:27:55.762Z,1.17
2023-03-28T09:30:28.313Z,0.62
2023-03-28T09:33:04.542Z,1.65
2023-03-28T09:35:35.268Z,1.05
2023-03-28T09:38:06.040Z,0.90
2023-03-28T09:40:36.044Z,0.98
2023-03-28T09:43:14.729Z,0.40
2023-03-28T09:45:54.227Z,0.98
2023-03-28T09:48:27.970Z,1.40
2023-03-28T09:50:58.153Z,1.00
2023-03-28T09:53:31.076Z,0.70
2023-03-28T09:56:04.866Z,0.98
2023-03-28T09:58:51.311Z,0.62
2023-03-28T10:01:32.693Z,1.02
2023-03-28T10:04:11.154Z,1.20
2023-03-28T10:06:41.727Z,1.40
2023-03-28T10:09:20.122Z,1.60
2023-03-28T10:11:54.316Z,0.90
2023-03-28T10:14:35.731Z,1.10
2023-03-28T10:17:08.145Z,0.95
2023-03-28T10:19:41.093Z,0.82
2023-03-28T10:22:15.555Z,0.77
2023-03-28T10:24:48.734Z,0.82
2023-03-28T10:27:21.203Z,1.08
2023-03-28T10:29:53.479Z,1.30
2023-03-28T10:32:27.118Z,1.33
2023-03-28T10:35:02.487Z,1.58
2023-03-28T10:37:34.398Z,1.35
2023-03-28T10:40:07.904Z,1.20
2023-03-28T10:42:42.129Z,1.40
2023-03-28T10:45:24.022Z,1.25
2023-03-28T10:47:57.630Z,1.50
2023-03-28T10:50:33.494Z,1.27
2023-03-28T10:53:21.211Z,1.27
2023-03-28T10:56:02.500Z,1.30
2023-03-28T10:58:36.209Z,1.27
2023-03-28T11:01:17.769Z,1.25
2023-03-28T11:04:03.879Z,1.20
2023-03-28T11:06:42.242Z,1.27
2023-03-28T11:09:18.089Z,1.20
2023-03-28T11:12:03.595Z,1.58
2023-03-28T11:14:48.517Z,1.10
2023-03-28T11:17:28.747Z,1.55
2023-03-28T11:20:17.707Z,1.20
2023-03-28T11:23:05.659Z,1.30
2023-03-28T11:25:43.882Z,1.33
2023-03-28T11:28:28.108Z,1.42
2023-03-28T11:30:59.676Z,1.40
2023-03-28T11:33:37.463Z,1.20
2023-03-28T11:36:16.529Z,1.40
2023-03-28T11:38:51.855Z,1.35
2023-03-28T11:41:22.883Z,1.10
2023-03-28T11:43:58.444Z,1.50
2023-03-28T11:46:31.013Z,1.20
2023-03-28T11:49:17.338Z,1.30
2023-03-28T11:51:51.709Z,1.20
2023-03-28T11:54:26.002Z,1.10
2023-03-28T11:57:00.242Z,1.27
2023-03-28T11:59:49.764Z,0.82
2023-03-28T12:02:42.428Z,1.15
2023-03-28T12:05:22.799Z,1.12
2023-03-28T12:07:57.372Z,0.90
2023-03-28T12:10:35.892Z,1.00
2023-03-28T12:13:11.257Z,0.68
2023-03-28T12:15:47.465Z,0.82
2023-03-28T12:18:23.937Z,1.05
2023-03-28T12:21:00.832Z,1.10
2023-03-28T12:23:38.932Z,1.45
2023-03-28T12:26:21.394Z,1.27
2023-03-28T12:28:54.295Z,1.25
2023-03-28T12:31:29.010Z,1.12
2023-03-28T12:34:07.300Z,1.25
2023-03-28T12:36:50.042Z,1.30
2023-03-28T12:39:35.443Z,1.05
2023-03-28T12:42:10.452Z,1.25
2023-03-28T12:44:43.848Z,1.55
2023-03-28T12:47:17.155Z,1.52
2023-03-28T12:49:49.022Z,2.42
2023-03-28T12:52:25.331Z,1.40
2023-03-28T12:54:57.683Z,1.08
2023-03-28T12:57:46.663Z,1.45
2023-03-28T13:00:24.616Z,1.40
2023-03-28T13:03:10.120Z,1.30
2023-03-28T13:05:47.428Z,0.90
2023-03-28T13:08:24.513Z,1.52
2023-03-28T13:11:07.824Z,0.95
2023-03-28T13:13:46.817Z,0.70
2023-03-28T13:16:17.163Z,0.90
2023-03-28T13:18:49.812Z,0.85
2023-03-28T13:21:42.778Z,0.60
2023-03-28T13:24:30.283Z,0.80
2023-03-28T13:27:00.812Z,1.35
2023-03-28T13:29:46.348Z,0.82
2023-03-28T13:32:16.838Z,0.90
2023-03-28T13:34:50.337Z,0.90
2023-03-28T13:37:23.088Z,0.70
2023-03-28T13:40:01.148Z,0.82
2023-03-28T13:42:34.239Z,0.82
2023-03-28T13:45:05.059Z,0.80
2023-03-28T13:47:38.369Z,0.85
2023-03-28T13:50:17.347Z,0.70
2023-03-28T13:52:45.536Z,0.50
2023-03-28T13:55:24.554Z,0.90
2023-03-28T13:57:53.774Z,1.15
2023-03-28T14:00:26.695Z,1.48
2023-03-28T14:03:02.204Z,1.02
2023-03-28T14:05:31.828Z,1.10
2023-03-28T14:08:19.991Z,1.10
2023-03-28T14:10:51.045Z,0.90
2023-03-28T14:13:23.094Z,1.15
2023-03-28T14:15:53.573Z,0.90
2023-03-28T14:18:29.876Z,0.80
2023-03-28T14:20:58.093Z,1.80
2023-03-28T14:23:30.634Z,1.85
2023-03-28T14:26:02.099Z,1.58
2023-03-28T14:28:31.703Z,1.87
2023-03-28T14:31:00.641Z,1.20
2023-03-28T14:33:37.245Z,1.20
2023-03-28T14:36:06.902Z,1.50
2023-03-28T14:38:49.401Z,1.27
2023-03-28T14:41:29.239Z,1.02
2023-03-28T14:43:59.502Z,1.48
2023-03-28T14:46:31.176Z,1.00
2023-03-28T14:49:01.685Z,0.90
2023-03-28T14:51:39.783Z,0.90
2023-03-28T14:54:14.334Z,0.98
2023-03-28T14:56:45.267Z,0.80
2023-03-28T14:59:19.933Z,1.30
2023-03-28T15:01:51.498Z,1.15
2023-03-28T15:04:21.405Z,1.17
2023-03-28T15:06:55.651Z,0.95
2023-03-28T15:09:29.695Z,0.85
2023-03-28T15:12:04.174Z,1.12
2023-03-28T15:14:38.376Z,0.62
2023-03-28T15:17:07.000Z,0.98
2023-03-28T15:19:38.335Z,0.68
2023-03-28T15:22:12.521Z,1.35
2023-03-28T15:24:41.443Z,0.90
2023-03-28T15:27:24.178Z,0.80
2023-03-28T15:29:52.675Z,0.70
2023-03-28T15:32:21.888Z,1.00
2023-03-28T15:35:02.317Z,0.85
2023-03-28T15:37:44.937Z,1.02
2023-03-28T15:40:24.136Z,0.70
2023-03-28T15:42:56.306Z,0.95
2023-03-28T15:45:40.922Z,1.10
2023-03-28T15:48:20.750Z,0.95
2023-03-28T15:50:53.523Z,0.93
2023-03-28T15:53:26.600Z,0.70
2023-03-28T15:55:54.778Z,1.00
2023-03-28T15:58:24.389Z,1.70
2023-03-28T16:00:54.308Z,1.42
2023-03-28T16:03:32.631Z,1.45
2023-03-28T16:06:23.174Z,0.93
2023-03-28T16:09:14.506Z,0.75
2023-03-28T16:11:42.571Z,1.00
2023-03-28T16:14:18.017Z,0.60
2023-03-28T16:16:47.750Z,0.60
2023-03-28T16:19:21.399Z,0.55
2023-03-28T16:21:49.733Z,1.10
2023-03-28T16:24:18.220Z,1.20
2023-03-28T16:26:46.964Z,1.58
2023-03-28T16:29:16.825Z,0.90
2023-03-28T16:31:45.898Z,2.00
2023-03-28T16:34:14.058Z,1.48
2023-03-28T16:36:42.066Z,2.00
2023-03-28T16:39:11.644Z,1.62
2023-03-28T16:41:39.742Z,1.35
2023-03-28T16:44:07.721Z,1.27
2023-03-28T16:46:37.458Z,2.80
2023-03-28T16:49:05.583Z,2.60
2023-03-28T16:51:33.988Z,3.30
2023-03-28T16:54:02.611Z,2.60
2023-03-28T16:56:30.782Z,1.85
2023-03-28T16:58:58.761Z,3.28
2023-03-28T17:01:27.534Z,4.80
2023-03-28T17:03:57.262Z,6.10
2023-03-28T17:06:27.406Z,2.87
2023-03-28T17:08:56.193Z,5.65
2023-03-28T17:11:24.338Z,4.50
2023-03-28T17:13:54.403Z,3.97
2023-03-28T17:16:24.079Z,2.25
2023-03-28T17:18:53.708Z,1.20
2023-03-28T17:21:23.299Z,1.30
2023-03-28T17:23:52.731Z,0.62
2023-03-28T17:26:20.800Z,0.82
2023-03-28T17:28:50.835Z,0.68
2023-03-28T17:31:21.211Z,0.50
2023-03-28T17:33:49.476Z,0.73
2023-03-28T17:36:21.939Z,0.80
2023-03-28T17:38:54.749Z,0.60
2023-03-28T17:41:26.256Z,0.90
2023-03-28T17:43:55.857Z,0.80
2023-03-28T17:46:24.440Z,1.60
2023-03-28T17:48:53.065Z,1.92
2023-03-28T17:51:21.494Z,1.55
2023-03-28T17:53:49.726Z,1.17
2023-03-28T17:56:19.610Z,1.05
2023-03-28T17:58:48.047Z,0.88
2023-03-28T18:01:18.723Z,1.08
2023-03-28T18:03:47.590Z,1.02
2023-03-28T18:06:16.590Z,1.27
2023-03-28T18:08:45.286Z,0.90
2023-03-28T18:11:16.315Z,1.42
2023-03-28T18:13:46.726Z,1.15
2023-03-28T18:16:18.207Z,1.05
2023-03-28T18:18:46.652Z,1.20
2023-03-28T18:21:15.670Z,1.10
2023-03-28T18:23:43.667Z,0.80
2023-03-28T18:26:12.117Z,1.02
2023-03-28T18:28:40.547Z,1.00
2023-03-28T18:31:12.069Z,1.92
2023-03-28T18:33:41.331Z,1.60
2023-03-28T18:36:10.854Z,1.23
2023-03-28T18:38:40.218Z,1.08
2023-03-28T18:41:09.263Z,1.65
2023-03-28T18:43:38.241Z,1.25
2023-03-28T18:46:07.794Z,1.40
2023-03-28T18:48:37.783Z,1.05
2023-03-28T18:51:07.005Z,1.50
2023-03-28T18:53:35.488Z,1.62
2023-03-28T18:56:04.597Z,1.40
2023-03-28T18:58:33.320Z,1.27
2023-03-28T19:01:03.663Z,1.83
2023-03-28T19:03:38.520Z,2.35
2023-03-28T19:06:09.772Z,2.58
2023-03-28T19:08:38.180Z,1.70
2023-03-28T19:11:11.834Z,1.15
2023-03-28T19:13:41.013Z,1.00
2023-03-28T19:16:11.635Z,1.80
2023-03-28T19:18:41.170Z,0.80
2023-03-28T19:21:12.765Z,1.30
2023-03-28T19:23:42.135Z,1.35
2023-03-28T19:26:13.092Z,1.77
2023-03-28T19:28:41.859Z,1.80
2023-03-28T19:31:11.925Z,1.75
2023-03-28T19:33:41.674Z,1.87
2023-03-28T19:36:11.819Z,1.33
2023-03-28T19:38:40.676Z,1.83
2023-03-28T19:41:15.884Z,1.52
2023-03-28T19:43:45.051Z,1.67
2023-03-28T19:46:18.481Z,1.77
2023-03-28T19:48:46.782Z,1.87
2023-03-28T19:51:16.699Z,1.55
2023-03-28T19:53:44.883Z,1.70
2023-03-28T19:56:14.042Z,2.15
2023-03-28T19:58:42.407Z,2.08
2023-03-28T20:01:10.483Z,1.40
2023-03-28T20:03:38.900Z,1.27
2023-03-28T20:06:09.058Z,1.60
2023-03-28T20:08:38.687Z,1.85
2023-03-28T20:11:09.237Z,1.60
2023-03-28T20:13:37.298Z,1.80
2023-03-28T20:16:07.576Z,1.75
2023-03-28T20:18:37.249Z,1.70
2023-03-28T20:21:07.725Z,1.60
2023-03-28T20:23:36.249Z,1.12
2023-03-28T20:26:16.053Z,1.37
2023-03-28T20:28:46.823Z,1.20
2023-03-28T20:31:14.940Z,1.37
2023-03-28T20:33:43.191Z,1.65
2023-03-28T20:36:12.299Z,1.08
2023-03-28T20:38:40.921Z,1.35
2023-03-28T20:41:14.413Z,1.90
2023-03-28T20:43:47.898Z,1.70
2023-03-28T20:46:19.519Z,1.27
2023-03-28T20:48:51.890Z,1.48
2023-03-28T20:51:23.857Z,1.90
2023-03-28T20:53:54.934Z,2.20
2023-03-28T20:56:24.838Z,1.67
2023-03-28T20:58:53.607Z,1.77
2023-03-28T21:01:25.352Z,1.45
2023-03-28T21:03:55.408Z,2.05
2023-03-28T21:06:26.136Z,1.17
2023-03-28T21:08:56.893Z,1.70
2023-03-28T21:11:28.181Z,1.33
2023-03-28T21:13:57.914Z,1.58
2023-03-28T21:16:27.621Z,1.55
2023-03-28T21:18:56.654Z,1.70
2023-03-28T21:21:25.061Z,1.80
2023-03-28T21:23:53.439Z,1.40
2023-03-28T21:26:23.188Z,1.77
2023-03-28T21:28:55.865Z,1.95
2023-03-28T21:31:26.126Z,2.03
2023-03-28T21:33:57.549Z,2.58
2023-03-28T21:36:27.115Z,1.95
2023-03-28T21:38:56.408Z,1.52
2023-03-28T21:41:24.848Z,2.03
2023-03-28T21:43:54.716Z,1.83
2023-03-28T21:46:28.840Z,1.83
2023-03-28T21:48:59.157Z,2.28
2023-03-28T21:51:27.705Z,2.20
2023-03-28T21:53:55.765Z,1.55
2023-03-28T21:56:24.967Z,1.52
2023-03-28T21:58:54.882Z,2.00
2023-03-28T22:01:23.162Z,1.80
2023-03-28T22:03:51.985Z,2.25
2023-03-28T22:06:20.741Z,2.20
2023-03-28T22:08:52.236Z,1.90
2023-03-28T22:11:27.376Z,2.10
2023-03-28T22:14:01.490Z,1.70
2023-03-28T22:16:32.374Z,2.00
2023-03-28T22:19:00.908Z,1.70
2023-03-28T22:21:31.568Z,1.65
2023-03-28T22:24:00.013Z,1.65
2023-03-28T22:26:28.373Z,1.85
2023-03-28T22:28:59.596Z,1.83
2023-03-28T22:31:28.444Z,1.42
2023-03-28T22:33:56.928Z,1.65
2023-03-28T22:36:25.079Z,1.73
2023-03-28T22:38:54.724Z,2.17
2023-03-28T22:41:23.801Z,1.92
2023-03-28T22:43:52.155Z,1.60
2023-03-28T22:46:22.815Z,1.87
2023-03-28T22:48:54.212Z,1.23
2023-03-28T22:51:27.739Z,1.52
2023-03-28T22:54:00.362Z,1.48
2023-03-28T22:56:28.770Z,1.48
2023-03-28T22:59:01.298Z,1.40
2023-03-28T23:01:31.021Z,1.60
2023-03-28T23:03:59.305Z,1.55
2023-03-28T23:06:28.117Z,1.92
2023-03-28T23:08:56.530Z,1.83
2023-03-28T23:11:25.090Z,1.42
2023-03-28T23:13:53.375Z,1.83
2023-03-28T23:16:21.602Z,1.15
2023-03-28T23:18:51.434Z,1.40
2023-03-28T23:21:20.301Z,1.15
2023-03-28T23:23:48.555Z,1.40
2023-03-28T23:26:17.819Z,1.17
2023-03-28T23:28:46.411Z,1.70
2023-03-28T23:31:15.450Z,1.87
2023-03-28T23:33:46.316Z,1.15
2023-03-28T23:36:21.056Z,1.70
2023-03-28T23:38:50.107Z,1.37
2023-03-28T23:41:18.253Z,2.15
2023-03-28T23:43:46.377Z,1.58
2023-03-28T23:46:16.952Z,1.12
2023-03-28T23:48:45.220Z,1.58
2023-03-28T23:51:17.980Z,1.58
2023-03-28T23:53:46.048Z,1.70
2023-03-28T23:56:14.041Z,1.45
2023-03-28T23:58:42.764Z,1.37
